SKUI/UIB METAR and TAF weather

Enter ICAO airport designator
Station Type Date Time Source
SKUI METAR 2020/04/01 23:00 UTC NOAA

SKUI 012300Z 36005KT 8000 VCSH BKN010 BKN080 26/24 A2979 RMK VCSH N/NE


Station Type Date Time Source
SKUI Decoded METAR 2020/04/01 23:00 UTC NOAA

Quibdo / El Carano, Colombia (SKUI) 05-43N 076-37W
Apr 01, 2020 - 07:00 PM EDT / 2020.04.01 2300 UTC
Wind: from the N (360 degrees) at 6 MPH (5 KT):0
Visibility: 4 mile(s):0
Sky conditions: mostly cloudy
Weather: showers in the vicinity
Temperature: 78 F (26 C)
Dew Point: 75 F (24 C)
Relative Humidity: 88%
Pressure (altimeter): 29.79 in. Hg (1008 hPa)
ob: SKUI 012300Z 36005KT 8000 VCSH BKN010 BKN080 26/24 A2979 RMK VCSH N/NE
cycle: 23

Station Type Date Time Source
SKUI TAF UTC NOAA

Error!

Example: see airport list